createdAt,value
2023-01-08T00:04:38.324Z,8.02
2023-01-08T00:09:41.737Z,8.43
2023-01-08T00:19:48.073Z,8.43
2023-01-08T00:24:51.354Z,7.03
2023-01-08T00:34:58.386Z,6.03
2023-01-08T00:45:06.305Z,5.55
2023-01-08T00:50:10.191Z,5.13
2023-01-08T00:55:13.614Z,4.70
2023-01-08T01:00:17.675Z,3.60
2023-01-08T01:05:21.068Z,3.50
2023-01-08T01:10:25.010Z,2.83
2023-01-08T01:15:28.482Z,3.08
2023-01-08T01:20:32.073Z,3.13
2023-01-08T01:25:38.485Z,3.72
2023-01-08T01:30:41.968Z,3.08
2023-01-08T01:35:45.738Z,3.42
2023-01-08T01:40:50.489Z,4.38
2023-01-08T01:45:54.310Z,4.10
2023-01-08T01:50:57.880Z,3.72
2023-01-08T01:56:01.849Z,3.90
2023-01-08T02:01:08.578Z,4.28
2023-01-08T02:06:48.392Z,5.07
2023-01-08T02:12:04.725Z,5.30
2023-01-08T02:17:13.128Z,5.72
2023-01-08T02:22:25.507Z,6.28
2023-01-08T02:27:31.051Z,6.37
2023-01-08T02:32:38.570Z,6.60
2023-01-08T02:37:43.345Z,6.88
2023-01-08T02:43:24.980Z,7.63
2023-01-08T02:48:37.946Z,6.97
2023-01-08T02:58:48.175Z,7.15
2023-01-08T03:03:57.000Z,6.35
2023-01-08T03:09:02.558Z,6.85
2023-01-08T03:14:41.745Z,7.45
2023-01-08T03:19:50.963Z,6.78
2023-01-08T03:24:55.570Z,6.72
2023-01-08T03:30:00.156Z,7.72
2023-01-08T03:35:08.243Z,7.25
2023-01-08T03:40:18.334Z,6.20
2023-01-08T03:45:24.379Z,6.60
2023-01-08T03:50:31.822Z,6.20
2023-01-08T03:55:36.328Z,7.05
2023-01-08T04:00:39.772Z,7.03
2023-01-08T04:05:44.044Z,6.78
2023-01-08T04:10:47.503Z,8.32
2023-01-08T04:15:51.980Z,8.23
2023-01-08T04:20:55.390Z,8.02
2023-01-08T04:25:58.937Z,9.30
2023-01-08T04:31:10.272Z,9.60
2023-01-08T04:36:14.013Z,10.43
2023-01-08T04:41:18.460Z,13.60
2023-01-08T04:46:21.948Z,12.38
2023-01-08T04:51:25.599Z,12.68
2023-01-08T04:56:30.195Z,13.52
2023-01-08T05:06:36.900Z,12.75
2023-01-08T05:11:40.752Z,12.25
2023-01-08T05:16:45.534Z,12.55
2023-01-08T05:21:49.074Z,11.52
2023-01-08T05:26:52.666Z,11.15
2023-01-08T05:31:56.281Z,10.65
2023-01-08T05:36:59.559Z,11.82
2023-01-08T05:42:03.666Z,10.60
2023-01-08T05:47:08.281Z,10.38
2023-01-08T05:52:12.927Z,10.50
2023-01-08T05:57:16.412Z,9.57
2023-01-08T06:02:19.887Z,10.02
2023-01-08T06:07:23.309Z,10.07
2023-01-08T06:17:29.840Z,11.05
2023-01-08T06:27:39.291Z,10.15
2023-01-08T06:32:43.651Z,11.52
2023-01-08T06:42:50.166Z,10.88
2023-01-08T06:47:53.925Z,10.82
2023-01-08T06:52:58.654Z,11.80
2023-01-08T06:58:01.905Z,11.30
2023-01-08T07:08:15.999Z,13.50
2023-01-08T07:13:19.483Z,15.02
2023-01-08T07:18:22.831Z,14.10
2023-01-08T07:28:29.917Z,13.15
2023-01-08T07:33:35.756Z,12.65
2023-01-08T07:38:39.363Z,13.02
2023-01-08T07:43:42.832Z,14.18
2023-01-08T07:48:47.185Z,15.55
2023-01-08T07:53:51.147Z,13.98
2023-01-08T07:58:54.866Z,14.75
2023-01-08T08:03:58.243Z,14.80
2023-01-08T08:14:04.986Z,12.55
2023-01-08T08:19:08.505Z,14.85
2023-01-08T08:24:12.016Z,15.43
2023-01-08T08:29:15.993Z,15.38
2023-01-08T08:34:19.406Z,16.35
2023-01-08T08:39:22.716Z,15.23
2023-01-08T08:44:26.103Z,15.60
2023-01-08T08:54:32.675Z,15.35
2023-01-08T08:59:36.584Z,15.80
2023-01-08T09:04:40.039Z,15.07
2023-01-08T09:09:43.557Z,16.50
2023-01-08T09:14:46.934Z,16.23
2023-01-08T09:19:50.152Z,17.00
2023-01-08T09:29:56.806Z,16.65
2023-01-08T09:35:00.395Z,17.65
2023-01-08T09:40:04.218Z,17.40
2023-01-08T09:45:23.101Z,16.83
2023-01-08T09:50:28.645Z,17.15
2023-01-08T09:55:34.533Z,17.08
2023-01-08T10:00:38.400Z,17.27
2023-01-08T10:05:42.531Z,17.42
2023-01-08T10:10:46.351Z,16.98
2023-01-08T10:15:50.162Z,16.20
2023-01-08T10:20:54.747Z,16.02
2023-01-08T10:26:01.057Z,16.33
2023-01-08T10:31:08.744Z,17.15
2023-01-08T10:36:23.001Z,15.63
2023-01-08T10:41:27.501Z,16.98
2023-01-08T10:46:43.861Z,15.52
2023-01-08T10:51:52.522Z,15.18
2023-01-08T10:56:56.346Z,16.17
2023-01-08T11:02:00.298Z,16.15
2023-01-08T11:07:07.420Z,15.68
2023-01-08T11:12:34.925Z,16.98
2023-01-08T11:17:38.397Z,15.30
2023-01-08T11:22:41.787Z,15.25
2023-01-08T11:27:45.304Z,15.40
2023-01-08T11:33:05.138Z,15.68
2023-01-08T11:38:13.429Z,15.63
2023-01-08T11:43:38.395Z,15.95
2023-01-08T11:49:14.215Z,15.50
2023-01-08T11:54:55.228Z,14.32
2023-01-08T12:00:43.191Z,13.95
2023-01-08T12:06:11.703Z,13.38
2023-01-08T12:11:24.105Z,12.55
2023-01-08T12:16:50.856Z,15.90
2023-01-08T12:22:00.143Z,13.63
2023-01-08T12:27:19.512Z,13.90
2023-01-08T12:32:44.340Z,14.15
2023-01-08T12:38:02.652Z,12.82
2023-01-08T12:43:14.389Z,12.63
2023-01-08T12:48:24.818Z,13.18
2023-01-08T12:53:45.173Z,11.63
2023-01-08T12:59:07.362Z,12.60
2023-01-08T13:04:11.760Z,11.88
2023-01-08T13:09:24.489Z,11.85
2023-01-08T13:14:29.135Z,11.75
2023-01-08T13:19:45.527Z,11.27
2023-01-08T13:24:48.910Z,11.45
2023-01-08T13:29:53.092Z,10.40
2023-01-08T13:35:08.768Z,11.93
2023-01-08T13:40:43.020Z,10.60
2023-01-08T13:46:19.635Z,10.60
2023-01-08T13:51:35.942Z,9.13
2023-01-08T13:56:42.442Z,9.20
2023-01-08T14:01:54.600Z,9.52
2023-01-08T14:07:15.099Z,8.85
2023-01-08T14:12:22.280Z,9.63
2023-01-08T14:17:34.841Z,9.07
2023-01-08T14:22:41.732Z,9.77
2023-01-08T14:27:58.647Z,10.23
2023-01-08T14:33:04.108Z,9.38
2023-01-08T14:38:13.696Z,8.82
2023-01-08T14:43:21.515Z,9.07
2023-01-08T14:48:36.771Z,8.93
2023-01-08T14:53:45.990Z,8.50
2023-01-08T14:58:49.640Z,8.93
2023-01-08T15:04:05.943Z,9.95
2023-01-08T15:09:31.619Z,9.43
2023-01-08T15:14:35.152Z,10.18
2023-01-08T15:19:59.646Z,10.35
2023-01-08T15:25:07.010Z,10.75
2023-01-08T15:30:46.336Z,11.27
2023-01-08T15:35:51.224Z,11.23
2023-01-08T15:40:55.450Z,10.55
2023-01-08T15:45:58.944Z,11.00
2023-01-08T15:51:02.307Z,10.77
2023-01-08T15:56:05.925Z,11.68
2023-01-08T16:01:10.057Z,11.02
2023-01-08T16:06:13.710Z,10.75
2023-01-08T16:11:19.461Z,11.35
2023-01-08T16:16:24.569Z,11.32
2023-01-08T16:21:31.198Z,12.35
2023-01-08T16:26:35.182Z,12.80
2023-01-08T16:31:40.084Z,13.38
2023-01-08T16:36:43.552Z,14.40
2023-01-08T16:41:50.073Z,14.25
2023-01-08T16:46:53.782Z,14.93
2023-01-08T16:51:58.004Z,14.10
2023-01-08T16:57:02.672Z,16.77
2023-01-08T17:02:07.180Z,15.98
2023-01-08T17:07:14.217Z,15.90
2023-01-08T17:12:18.519Z,16.60
2023-01-08T17:17:27.995Z,17.48
2023-01-08T17:22:35.982Z,17.67
2023-01-08T17:27:39.435Z,16.40
2023-01-08T17:32:47.059Z,17.85
2023-01-08T17:37:53.308Z,18.85
2023-01-08T17:42:57.152Z,16.65
2023-01-08T17:48:04.018Z,15.82
2023-01-08T17:53:07.519Z,15.00
2023-01-08T17:58:14.527Z,12.50
2023-01-08T18:03:18.138Z,12.75
2023-01-08T18:08:21.528Z,12.70
2023-01-08T18:18:28.406Z,10.80
2023-01-08T18:23:32.568Z,13.48
2023-01-08T18:28:36.913Z,12.38
2023-01-08T18:33:40.891Z,10.05
2023-01-08T18:38:45.131Z,8.73
2023-01-08T18:43:48.563Z,6.90
2023-01-08T18:48:58.341Z,7.55
2023-01-08T18:54:02.508Z,7.95
2023-01-08T18:59:07.865Z,7.50
2023-01-08T19:04:16.465Z,8.38
2023-01-08T19:09:22.655Z,8.68
2023-01-08T19:14:26.497Z,8.15
2023-01-08T19:19:30.070Z,9.25
2023-01-08T19:29:37.155Z,10.82
2023-01-08T19:34:41.287Z,12.43
2023-01-08T19:39:44.664Z,14.48
2023-01-08T19:44:49.882Z,13.88
2023-01-08T19:49:53.311Z,14.40
2023-01-08T19:54:56.697Z,14.27
2023-01-08T20:00:00.510Z,16.55
2023-01-08T20:05:06.147Z,16.33
2023-01-08T20:10:14.018Z,16.90
2023-01-08T20:15:17.572Z,16.95
2023-01-08T20:20:21.244Z,16.35
2023-01-08T20:25:24.651Z,18.30
2023-01-08T20:30:28.355Z,20.98
2023-01-08T20:35:31.868Z,21.48
2023-01-08T20:40:37.648Z,21.30
2023-01-08T20:45:44.951Z,19.90
2023-01-08T20:50:59.143Z,18.95
2023-01-08T20:56:12.254Z,18.60
2023-01-08T21:01:19.058Z,19.42
2023-01-08T21:06:27.614Z,18.60
2023-01-08T21:11:33.491Z,18.83
2023-01-08T21:16:38.022Z,21.25
2023-01-08T21:21:41.708Z,20.75
2023-01-08T21:26:46.970Z,21.10
2023-01-08T21:31:50.890Z,20.20
2023-01-08T21:36:54.459Z,22.88
2023-01-08T21:42:00.435Z,22.17
2023-01-08T21:47:07.146Z,22.02
2023-01-08T21:52:16.954Z,19.70
2023-01-08T21:57:21.024Z,20.67
2023-01-08T22:02:25.346Z,22.75
2023-01-08T22:07:34.213Z,23.13
2023-01-08T22:12:42.330Z,22.35
2023-01-08T22:17:45.843Z,23.45
2023-01-08T22:22:53.430Z,24.55
2023-01-08T22:28:00.329Z,25.77
2023-01-08T22:33:03.669Z,23.83
2023-01-08T22:38:07.080Z,25.25
2023-01-08T22:48:13.549Z,26.20
2023-01-08T22:53:23.322Z,25.48
2023-01-08T22:58:32.082Z,26.80
2023-01-08T23:08:40.036Z,26.25
2023-01-08T23:13:45.323Z,25.88
2023-01-08T23:18:48.716Z,27.58
2023-01-08T23:28:57.485Z,24.80
2023-01-08T23:34:00.930Z,25.42
2023-01-08T23:39:05.082Z,25.58
2023-01-08T23:44:14.967Z,25.50
2023-01-08T23:49:18.442Z,26.70
2023-01-08T23:54:22.149Z,26.65
2023-01-08T23:59:26.890Z,24.45
